Terminal Aerodrome Forecast
Issued by NWS Grand Forks, ND

Home | Current Version | Previous Version | Graphics & Text | Print | Product List | Glossary On
Versions: 1 2 3 4 5 6 7 8 9 10 11 12 13 14 15 16 17
621
FTUS43 KFGF 220520
TAFFAR
TAF
KFAR 220520Z 2206/2306 VRB05KT P6SM BKN150
     FM220900 VRB04KT P6SM VCTS BKN080CB
     FM221400 28008KT P6SM SCT140
     FM221600 30012KT P6SM FEW200
     FM222300 33016G24KT P6SM FEW200
     FM230200 34009KT P6SM FEW200=

USA.gov is the U.S. government's official web portal to all federal, state and local government web resources and services.